Résultats


Course Trail de Chateau-Virant 16 KM. Édition 2019.

16 Km
28/04/2019 à 09:15:00 - Lancon-provence (13)
216 arrivant(e)s.





Place▲ Temps Dossard Nom Prenom Categ #Categ Sexe #Sexe Club Vit Moy Diplôme Partager
1 00:34:56 1797 DURY DAVID M1M 1 M 1 TEAM PROVENCE ENDURANCE 27.48
2 00:35:12 1525 RACCA CHRISTOPHE M1M 2 M 2 CEF MARATHONIEN 27.27
3 00:36:09 1484 VAN-DEN-BERGH BENJAMIN SEM 1 M 3 ABC RUNNING CLUB 26.56
4 00:36:59 1467 SUROY VINCENT M1M 3 M 4 FSPN 25.96
5 00:39:15 1633 DURAND YOAN SEM 2 M 5 AD APC 24.46
6 00:40:26 1629 BUZIN JEROME SEM 3 M 6 23.74
7 00:44:45 1465 DUMONT THIBAULT SEM 4 M 7 21.45
8 00:45:44 1576 LAFONT THIERRY M2M 1 M 8 ACMIRAMAS 20.99
9 00:45:59 1597 GUIRALD GILLES SEM 5 M 9 LA FARE SPORT NATURE 20.88
10 00:46:04 1612 HANICHE RACHID M1M 4 M 10 SALON TRIATHLON 20.84
11 00:46:07 1425 ALAMO CEDRIC M1M 5 M 11 VENTABREN JOGGING AVENTURE 20.82
12 00:46:41 1549 SIBEL SEBASTIEN M1M 6 M 12 20.56
13 00:46:42 1554 BOCK FRANCOIS-XAVIER SEM 6 M 13 20.56
14 00:47:32 1478 OGIER PHILIPPE M2M 2 M 14 RCC 20.20
15 00:47:41 1573 FOYER MARC M1M 7 M 15 20.13
16 00:47:47 1556 NGUYEN VINH SEM 7 M 16 ACP MARSEILLE 20.09
17 00:47:57 1528 CAVALLI PATRICK M2M 3 M 17 ATHLETIC BERRE CLUB 20.02
18 00:48:07 1609 MILAN UGO SEM 8 M 18 19.95
19 00:48:32 1435 PERENNOU MATHIEU M2M 4 M 19 VENTABREN JOGGING AVENTURE 19.78
20 00:48:38 1538 DEWAELE THOMAS M1M 8 M 20 19.74
21 00:49:42 1617 LA-MARCA CEDRIC SEM 9 M 21 LA FARE SPORT NATURE 19.32
22 00:50:33 1623 CUENOT ERIC M1M 9 M 22 KALENJI BY DECATHLON 18.99
23 00:50:39 1599 RUIZ NICOLAS M1M 10 M 23 18.95
24 00:51:57 1567 ROUX FABRICE M1M 11 M 24 ASM 18.48
25 00:52:00 1550 VERANI CHRISTOPHE SEM 10 M 25 18.46
26 00:52:42 1637 NICOLAS PHILIPPE M1M 12 M 26 FOULEES PELISSANAISES 18.22
27 00:52:50 1641 DEBATY NICOLAS SEM 11 M 27 ISTRES SPORTS TRIATHLON 18.17
28 00:52:54 1646 LEMENACH FRANCK SEM 12 M 28 18.15
29 00:53:15 1639 VILLAESCUSA FRANCOIS SEM 13 M 29 COURIR A SAUSSET 18.03
30 00:53:41 98 BEGHOUACH MOHAMED M2M 5 M 30 SALON TRIATHLON 17.88
31 00:53:54 1598 MARTINEZ OLIVIER M1M 13 M 31 AIX ATHLE PROVENCE 17.81
32 00:54:07 1615 LE-BOURNOT YANNICK M2M 6 M 32 LYONDELLBASELL BERRE 17.74
33 00:54:08 1601 RENAUD CHRISTOPHE SEM 14 M 33 17.73
34 00:54:09 1471 MATTEI DIDIER M2M 7 M 34 A NOUS LA VICTOIRE 17.73
35 00:54:12 1423 CONCHOU ALBAN M1M 14 M 35 VENTABREN JOGGING AVENTURE 17.71
36 00:54:19 1596 BOUILLET DAVID M2M 8 M 36 FOULEE SALONAISE 17.67
37 00:54:23 1514 THIERY FRANCK M2M 9 M 37 LES CHEVALIERS DE CALES 17.65
38 00:54:40 1455 SCHMITZ XAVIER SEM 15 M 38 17.56
39 00:55:18 1620 JONQUET SEBASTIEN SEM 16 M 39 17.36
40 00:55:29 1653 TARICCO JEAN-MARC M2M 10 M 40 TEAM TRAIL COTE BLEUE 17.30
41 00:55:32 1586 BIERREN ERIC M2M 11 M 41 LES FOULEES PELISSANNAISES 17.29
42 00:55:58 1444 GIRARD THIERRY M2M 12 M 42 VENTABREN JOGGING AVENTURE 17.15
43 00:56:02 1565 HUC DAVY SEM 17 M 43 17.13
44 00:56:03 1628 CARBONE PIERRE M3M 1 M 44 17.13
45 00:56:09 1645 MERCIER FREDERIC M1M 15 M 45 PELISANNE 17.10
46 00:56:11 1511 STETTLER PHILIPPE M2M 13 M 46 OCCP 17.09
47 00:56:12 1796 DIMASI FLORENT M1M 16 M 47 COUDOUX OLYMPIQUE 17.08
48 00:56:30 1438 GUIDOUX MIKAEL SEM 18 M 48 VENTABREN JOGGING AVENTURE 16.99
49 00:56:30 1512 TOUBOUL FABRICE M1M 17 M 49 LES CHEVALIERS DE CALES 16.99
50 00:56:37 1604 BIOLCHINI FRANCK M1M 18 M 50 SCAC SAINT CHAMAS 16.96
51 00:56:45 1420 CASTELLANI CEDRIC M1M 19 M 51 16.92
52 00:57:00 1624 DEDON PATRICE M2M 14 M 52 16.84
53 00:57:18 1540 MARCEL BRUNO M3M 2 M 53 SLC/TEAMTRAIL 16.75
54 00:57:31 1526 ELMASSIAN GWLADYS SEF 1 F 1 LES GRENOUILLES EN BASKET 16.69
55 00:57:45 1515 JOBARD CLEMENT SEM 19 M 54 16.62
56 00:57:45 1531 ROUSSEAUX DIMITRI SEM 20 M 55 AC LANCON 16.62
57 00:57:48 1580 FORESTIER LUC M2M 15 M 56 CHEVALIERS DE CALES 16.61
58 00:57:53 1454 HOPP CEDRIC M1M 20 M 57 16.59
59 00:57:56 1447 MITRANO VIRGINIE M1F 1 F 2 VENTABREN JOGGING AVENTURE 16.57
60 00:58:04 1588 BREGEON YANN M1M 21 M 58 16.53
61 00:58:27 1644 SANCHEZ FREDERIC SEM 21 M 59 RUNDERFULL FRIENDS 16.42
62 00:58:45 1621 COLPIN MATTHIEU SEM 22 M 60 16.34
63 00:58:47 1479 SAINT-PERON LIONEL M2M 16 M 61 ESPRIT RUNING VILLELAURE 16.33
64 00:58:48 1510 BURDIN EMMANUEL M1M 22 M 62 OLYMPIQUE CABRIES CALAS 16.33
65 00:58:54 1440 SEVESTRE NICOLAS M1M 23 M 63 VENTABREN JOGGING AVENTURE 16.30
66 00:59:04 1594 SARAIVA FREDERIC SEM 23 M 64 LA FARE SPORT NATURE 16.25
67 00:59:09 1572 FLIPO LOIC M2M 17 M 65 SAINT CHAM ATHLETIC CLUB 16.23
68 00:59:40 1480 COLOMBANI CECILE SEF 2 F 3 COUDOUX OLYMPIQUE 16.09
69 01:00:00 1569 SANTANTONIO DIDIER M1M 24 M 66 16.00
70 01:00:04 1618 LONCHAMPT PASCAL M1M 25 M 67 COUDOUX OLYMPIQUE 15.98
71 01:00:17 1431 RIPERTO JEAN-LUC M2M 18 M 68 VENTABREN JOGGING AVENTURE 15.92
72 01:00:18 1595 KELLER CATHERINE M2F 1 F 4 COURIR A VELAUX 15.92
73 01:00:28 1421 ABENOZA ELODIE SEF 3 F 5 RCC 15.88
74 01:00:28 1600 BURGER ERIC M1M 26 M 69 TEAM CLJ AVENTURE 15.88
75 01:00:34 1619 LAURENT GEORGES SEM 24 M 70 15.85
76 01:00:39 1616 ROCHETTE JEREMIE M1M 27 M 71 SEMELLES USEES ROGNAC 15.83
77 01:00:51 1571 LAFONT NADINE M2F 2 F 6 AC MIRAMAS 15.78
78 01:01:04 1655 CORACHAN STEPHANE M1M 28 M 72 CHRONOLIBRE 15.72
79 01:01:20 1592 ORIHUEL PASCAL M2M 19 M 73 AIX ATHLE PROVENCE 15.65
80 01:01:22 1560 LEON LEONCE M3M 3 M 74 FOULEE SALONAISE 15.64
81 01:01:44 1656 CARTHONNET EMMANUELLE SEF 4 F 7 MANUNETTE 15.55
82 01:01:55 1638 DILLY PATRICK M2M 20 M 75 COOL 15.50
83 01:02:07 1432 ANDRIEUX JEROME M1M 29 M 76 VENTABREN JOGGING AVENTURE 15.45
84 01:02:23 1610 HUTIN REMI SEM 25 M 77 15.39
85 01:02:31 1582 HRAGUA MYRIAM SEF 5 F 8 TEAM PROVENCE ENDURANCE 15.36
86 01:02:53 1574 SOULIER DAMIEN M2M 21 M 78 LES CHEVALIERS DE CALES 15.27
87 01:03:11 1522 TANCREDI DONATO SEM 26 M 79 CABBA 15.19
88 01:03:13 1490 HENOCQ DAVID M1M 30 M 80 15.19
89 01:03:14 1542 CHAVE JEANINE M2F 3 F 9 15.18
90 01:03:17 1536 VERRIER HERVE M2M 22 M 81 15.17
91 01:03:20 1486 DALICHOUX PHILIPPE M2M 23 M 82 FOULEE SALONAISE 15.16
92 01:03:22 1448 QUERE MELINDA SEF 6 F 10 ATSCAF ST VICTORET 15.15
93 01:03:33 1477 TREGNIER GILLES M2M 24 M 83 15.11
94 01:03:44 1470 WEBER-CAILLAUD LAURENCE M1F 2 F 11 15.06
95 01:03:55 1427 COLCOMBET CLEMENCE SEF 7 F 12 VENTABREN JOGGING AVENTURE 15.02
96 01:04:07 1632 VIALLET JEAN-VALEU SEM 27 M 84 14.97
97 01:04:10 1523 ROSSO THIERRY M3M 4 M 85 FOULEE SALONAISE 14.96
98 01:04:13 1459 RATHERY BENJAMIN SEM 28 M 86 BENAPHAIA 14.95
99 01:04:30 1568 CASTILLON JIMMY M1M 31 M 87 LYONDELLBASELL BERRE 14.88
100 01:04:47 1529 CHIQUET FREDERIC M1M 32 M 88 14.82